createdAt,value
2017-03-06T00:00:10.195Z,66.83
2017-03-06T00:01:10.227Z,66.74
2017-03-06T00:02:10.273Z,67.02
2017-03-06T00:03:10.293Z,67.21
2017-03-06T00:04:10.723Z,67.21
2017-03-06T00:05:10.359Z,67.21
2017-03-06T00:06:10.785Z,67.21
2017-03-06T00:07:10.823Z,67.02
2017-03-06T00:08:10.853Z,67.12
2017-03-06T00:09:10.515Z,67.12
2017-03-06T00:10:10.537Z,67.12
2017-03-06T00:11:10.966Z,66.93
2017-03-06T00:12:10.595Z,66.93
2017-03-06T00:13:10.628Z,67.59
2017-03-06T00:14:11.056Z,67.59
2017-03-06T00:15:10.694Z,67.5
2017-03-06T00:16:10.727Z,67.4
2017-03-06T00:17:11.163Z,67.59
2017-03-06T00:18:11.189Z,67.72
2017-03-06T00:19:11.240Z,67.72
2017-03-06T00:20:10.877Z,67.69
2017-03-06T00:21:11.289Z,67.79
2017-03-06T00:22:11.334Z,67.59
2017-03-06T00:23:10.965Z,68.01
2017-03-06T00:24:11.001Z,67.69
2017-03-06T00:25:11.033Z,67.59
2017-03-06T00:26:11.063Z,68.16
2017-03-06T00:27:11.489Z,67.63
2017-03-06T00:28:11.531Z,67.91
2017-03-06T00:29:11.181Z,67.34
2017-03-06T00:30:11.592Z,67.63
2017-03-06T00:31:11.232Z,67.72
2017-03-06T00:32:11.280Z,68.01
2017-03-06T00:33:11.692Z,67.63
2017-03-06T00:34:11.340Z,67.63
2017-03-06T00:35:11.758Z,67.82
2017-03-06T00:36:11.404Z,67.82
2017-03-06T00:37:11.839Z,67.63
2017-03-06T00:38:11.468Z,67.91
2017-03-06T00:39:11.525Z,67.63
2017-03-06T00:40:11.538Z,67.63
2017-03-06T00:41:11.569Z,67.72
2017-03-06T00:42:11.628Z,68.01
2017-03-06T00:43:11.635Z,67.91
2017-03-06T00:44:11.675Z,67.63
2017-03-06T00:45:11.708Z,67.63
2017-03-06T00:46:11.744Z,68.01
2017-03-06T00:47:12.167Z,67.44
2017-03-06T00:48:12.196Z,67.53
2017-03-06T00:49:11.837Z,67.72
2017-03-06T00:50:11.872Z,67.44
2017-03-06T00:51:11.906Z,67.44
2017-03-06T00:52:11.960Z,67.63
2017-03-06T00:53:12.367Z,67.82
2017-03-06T00:54:12.413Z,68.29
2017-03-06T00:55:12.432Z,68.39
2017-03-06T00:56:12.078Z,68.19
2017-03-06T00:57:12.108Z,68.01
2017-03-06T00:58:12.146Z,68.16
2017-03-06T00:59:12.180Z,67.82
2017-03-06T01:00:12.613Z,67.53
2017-03-06T01:01:12.248Z,68.01
2017-03-06T01:02:12.285Z,67.97
2017-03-06T01:03:12.705Z,67.69
2017-03-06T01:04:12.344Z,68.01
2017-03-06T01:05:12.775Z,67.88
2017-03-06T01:06:12.801Z,67.91
2017-03-06T01:07:12.842Z,68.01
2017-03-06T01:08:12.870Z,67.91
2017-03-06T01:09:12.908Z,67.59
2017-03-06T01:10:12.937Z,67.72
2017-03-06T01:11:12.981Z,67.72
2017-03-06T01:12:12.610Z,68.29
2017-03-06T01:13:13.039Z,68.1
2017-03-06T01:14:13.085Z,68.44
2017-03-06T01:15:12.714Z,68.48
2017-03-06T01:16:12.750Z,68.58
2017-03-06T01:17:12.782Z,67.72
2017-03-06T01:18:13.206Z,67.72
2017-03-06T01:19:13.244Z,68.19
2017-03-06T01:20:13.278Z,68.16
2017-03-06T01:21:12.929Z,67.97
2017-03-06T01:22:12.951Z,68.39
2017-03-06T01:23:12.981Z,68.48
2017-03-06T01:24:13.411Z,68.26
2017-03-06T01:25:13.059Z,68.16
2017-03-06T01:26:13.082Z,68.1
2017-03-06T01:27:13.118Z,68.01
2017-03-06T01:28:13.155Z,67.91
2017-03-06T01:29:13.580Z,68.01
2017-03-06T01:30:13.222Z,68.19
2017-03-06T01:31:13.252Z,68.48
2017-03-06T01:32:13.289Z,67.91
2017-03-06T01:33:13.317Z,68.19
2017-03-06T01:34:13.747Z,68.19
2017-03-06T01:35:13.783Z,68.19
2017-03-06T01:36:13.814Z,68.19
2017-03-06T01:37:13.456Z,68.39
2017-03-06T01:38:13.877Z,68.1
2017-03-06T01:39:13.913Z,68.58
2017-03-06T01:40:13.947Z,68.48
2017-03-06T01:41:13.982Z,68.58
2017-03-06T01:42:14.014Z,68.48
2017-03-06T01:43:13.654Z,68.19
2017-03-06T01:44:13.688Z,68.58
2017-03-06T01:45:13.724Z,68.39
2017-03-06T01:46:13.760Z,68.39
2017-03-06T01:47:13.794Z,68.39
2017-03-06T01:48:14.212Z,68.48
2017-03-06T01:49:14.257Z,68.39
2017-03-06T01:50:13.894Z,68.39
2017-03-06T01:51:13.941Z,68.58
2017-03-06T01:52:13.963Z,67.82
2017-03-06T01:53:13.992Z,68.39
2017-03-06T01:54:14.028Z,68.1
2017-03-06T01:55:14.451Z,68.39
2017-03-06T01:56:14.096Z,68.01
2017-03-06T01:57:14.520Z,68.58
2017-03-06T01:58:14.161Z,68.29
2017-03-06T01:59:14.196Z,68.39
2017-03-06T02:00:14.231Z,68.39
2017-03-06T02:01:14.264Z,68.39
2017-03-06T02:02:14.307Z,68.48
2017-03-06T02:03:14.339Z,68.58
2017-03-06T02:04:14.376Z,68.39
2017-03-06T02:05:14.398Z,68.01
2017-03-06T02:06:14.825Z,68.19
2017-03-06T02:07:14.859Z,67.91
2017-03-06T02:08:14.507Z,68.29
2017-03-06T02:09:14.530Z,67.82
2017-03-06T02:10:14.567Z,68.01
2017-03-06T02:11:14.993Z,67.82
2017-03-06T02:12:15.022Z,68.19
2017-03-06T02:13:15.066Z,68.77
2017-03-06T02:14:14.716Z,68.1
2017-03-06T02:15:15.142Z,68.48
2017-03-06T02:16:15.158Z,68.29
2017-03-06T02:17:15.192Z,68.1
2017-03-06T02:18:15.236Z,68.1
2017-03-06T02:19:14.882Z,68.67
2017-03-06T02:20:15.293Z,68.19
2017-03-06T02:21:14.951Z,68.39
2017-03-06T02:22:15.362Z,69.05
2017-03-06T02:23:15.009Z,68.29
2017-03-06T02:24:15.044Z,68.67
2017-03-06T02:25:15.070Z,68.64
2017-03-06T02:26:15.501Z,68.64
2017-03-06T02:27:15.152Z,68.35
2017-03-06T02:28:15.575Z,68.35
2017-03-06T02:29:15.600Z,68.58
2017-03-06T02:30:15.243Z,68.54
2017-03-06T02:31:15.278Z,69.3
2017-03-06T02:32:15.729Z,69.34
2017-03-06T02:33:15.345Z,69.11
2017-03-06T02:34:15.773Z,69.05
2017-03-06T02:35:15.815Z,69.3
2017-03-06T02:36:15.443Z,69.3
2017-03-06T02:37:15.487Z,68.92
2017-03-06T02:38:15.902Z,69.02
2017-03-06T02:39:15.546Z,69.02
2017-03-06T02:40:15.973Z,69.21
2017-03-06T02:41:15.628Z,69.11
2017-03-06T02:42:16.051Z,69.21
2017-03-06T02:43:15.681Z,69.49
2017-03-06T02:44:16.113Z,69.49
2017-03-06T02:45:15.760Z,69.4
2017-03-06T02:46:15.790Z,69.4
2017-03-06T02:47:15.836Z,69.4
2017-03-06T02:48:15.849Z,69.4
2017-03-06T02:49:15.889Z,69.59
2017-03-06T02:50:16.318Z,69.4
2017-03-06T02:51:15.963Z,69.3
2017-03-06T02:52:16.373Z,69.3
2017-03-06T02:53:16.017Z,69.4
2017-03-06T02:54:16.445Z,69.43
2017-03-06T02:55:16.481Z,69.68
2017-03-06T02:56:16.117Z,69.81
2017-03-06T02:57:16.540Z,69.71
2017-03-06T02:58:16.186Z,69.91
2017-03-06T02:59:16.224Z,70.06
2017-03-06T03:00:16.250Z,69.68
2017-03-06T03:01:16.287Z,69.68
2017-03-06T03:02:16.320Z,69.91
2017-03-06T03:03:16.367Z,69.49
2017-03-06T03:04:16.792Z,70.1
2017-03-06T03:05:16.817Z,69.91
2017-03-06T03:06:16.462Z,69.91
2017-03-06T03:07:16.486Z,69.91
2017-03-06T03:08:16.532Z,69.81
2017-03-06T03:09:16.778Z,69.71
2017-03-06T03:10:16.985Z,70.1
2017-03-06T03:11:16.636Z,70.1
2017-03-06T03:12:16.662Z,69.91
2017-03-06T03:13:17.085Z,69.91
2017-03-06T03:14:16.731Z,69.91
2017-03-06T03:15:17.149Z,69.91
2017-03-06T03:16:16.790Z,69.91
2017-03-06T03:17:16.825Z,70
2017-03-06T03:18:16.864Z,69.81
2017-03-06T03:19:16.889Z,70.1
2017-03-06T03:20:17.321Z,69.91
2017-03-06T03:21:17.350Z,69.91
2017-03-06T03:22:16.995Z,70.38
2017-03-06T03:23:17.026Z,70.29
2017-03-06T03:24:17.065Z,69.91
2017-03-06T03:25:17.093Z,69.91
2017-03-06T03:26:17.525Z,70.1
2017-03-06T03:27:17.163Z,69.81
2017-03-06T03:28:17.201Z,69.91
2017-03-06T03:29:17.621Z,69.91
2017-03-06T03:30:17.263Z,69.71
2017-03-06T03:31:17.297Z,69.81
2017-03-06T03:32:17.360Z,69.81
2017-03-06T03:33:17.365Z,70.1
2017-03-06T03:34:17.400Z,70.1
2017-03-06T03:35:17.846Z,69.71
2017-03-06T03:36:17.463Z,69.91
2017-03-06T03:37:17.500Z,69.91
2017-03-06T03:38:17.537Z,69.53
2017-03-06T03:39:17.979Z,70.1
2017-03-06T03:40:17.599Z,70.1
2017-03-06T03:41:17.635Z,69.81
2017-03-06T03:42:17.682Z,70.1
2017-03-06T03:43:17.721Z,69.81
2017-03-06T03:44:18.126Z,69.91
2017-03-06T03:45:18.163Z,70.1
2017-03-06T03:46:17.818Z,69.91
2017-03-06T03:47:17.857Z,70
2017-03-06T03:48:18.261Z,69.91
2017-03-06T03:49:18.310Z,69.91
2017-03-06T03:50:17.942Z,70.29
2017-03-06T03:51:17.974Z,69.91
2017-03-06T03:52:18.410Z,70.29
2017-03-06T03:53:18.435Z,70.29
2017-03-06T03:54:18.467Z,70.95
2017-03-06T03:55:18.110Z,70.95
2017-03-06T03:56:18.533Z,70.38
2017-03-06T03:57:18.177Z,70.1
2017-03-06T03:58:18.206Z,70
2017-03-06T03:59:18.644Z,70.38
2017-03-06T04:00:18.292Z,70.67
2017-03-06T04:01:18.315Z,70.67
2017-03-06T04:02:18.740Z,70.1
2017-03-06T04:03:18.768Z,70.1
2017-03-06T04:04:18.410Z,70.38
2017-03-06T04:05:18.446Z,70.29
2017-03-06T04:06:18.879Z,70.76
2017-03-06T04:07:18.904Z,70.67
2017-03-06T04:08:18.935Z,70.76
2017-03-06T04:09:18.594Z,70.67
2017-03-06T04:10:18.618Z,70.57
2017-03-06T04:11:18.649Z,70.57
2017-03-06T04:12:18.681Z,70.57
2017-03-06T04:13:18.718Z,70.86
2017-03-06T04:14:18.749Z,70.57
2017-03-06T04:15:19.183Z,70.67
2017-03-06T04:16:18.815Z,70.57
2017-03-06T04:17:19.240Z,70.29
2017-03-06T04:18:18.889Z,70.67
2017-03-06T04:19:19.309Z,70.67
2017-03-06T04:20:19.349Z,70.76
2017-03-06T04:21:18.988Z,71.23
2017-03-06T04:22:19.030Z,70.95
2017-03-06T04:23:19.449Z,70.76
2017-03-06T04:24:19.090Z,71.43
2017-03-06T04:25:19.512Z,70.57
2017-03-06T04:26:19.173Z,71.23
2017-03-06T04:27:19.190Z,71.43
2017-03-06T04:28:19.617Z,71.33
2017-03-06T04:29:19.256Z,71.43
2017-03-06T04:30:19.694Z,71.81
2017-03-06T04:31:19.324Z,71.71
2017-03-06T04:32:19.357Z,71.9
2017-03-06T04:33:19.392Z,71.81
2017-03-06T04:34:19.426Z,71.81
2017-03-06T04:35:19.469Z,72.19
2017-03-06T04:36:19.498Z,72
2017-03-06T04:37:19.530Z,71.62
2017-03-06T04:38:19.569Z,71.62
2017-03-06T04:39:19.598Z,71.62
2017-03-06T04:40:20.028Z,71.81
2017-03-06T04:41:19.664Z,71.71
2017-03-06T04:42:19.706Z,71.71
2017-03-06T04:43:19.738Z,71.71
2017-03-06T04:44:19.770Z,72.09
2017-03-06T04:45:19.800Z,71.81
2017-03-06T04:46:19.833Z,72.47
2017-03-06T04:47:19.869Z,72.03
2017-03-06T04:48:19.927Z,72.32
2017-03-06T04:49:19.941Z,72.22
2017-03-06T04:50:19.967Z,72.7
2017-03-06T04:51:20.002Z,72.32
2017-03-06T04:52:20.432Z,72.66
2017-03-06T04:53:20.072Z,72.7
2017-03-06T04:54:20.494Z,72.6
2017-03-06T04:55:20.141Z,72.32
2017-03-06T04:56:20.560Z,72.41
2017-03-06T04:57:20.217Z,72.6
2017-03-06T04:58:20.253Z,72.6
2017-03-06T04:59:20.272Z,72.47
2017-03-06T05:00:20.699Z,72.56
2017-03-06T05:01:20.344Z,72.28
2017-03-06T05:02:20.775Z,72.28
2017-03-06T05:03:20.408Z,72.47
2017-03-06T05:04:20.448Z,72.38
2017-03-06T05:05:20.492Z,72.28
2017-03-06T05:06:20.520Z,72.28
2017-03-06T05:07:20.940Z,72.75
2017-03-06T05:08:20.976Z,72.38
2017-03-06T05:09:21.009Z,72.66
2017-03-06T05:10:20.647Z,72.47
2017-03-06T05:11:20.690Z,72.56
2017-03-06T05:12:20.729Z,72.38
2017-03-06T05:13:20.753Z,73.04
2017-03-06T05:14:20.808Z,73.23
2017-03-06T05:15:20.817Z,73.14
2017-03-06T05:16:20.856Z,72.75
2017-03-06T05:17:20.887Z,72.75
2017-03-06T05:18:20.924Z,72.85
2017-03-06T05:19:20.952Z,72.47
2017-03-06T05:20:20.986Z,72.66
2017-03-06T05:21:21.024Z,72.75
2017-03-06T05:22:21.060Z,73.04
2017-03-06T05:23:21.089Z,72.66
2017-03-06T05:24:21.531Z,72.95
2017-03-06T05:25:21.156Z,72.85
2017-03-06T05:26:21.193Z,72.85
2017-03-06T05:27:21.617Z,72.66
2017-03-06T05:28:21.265Z,73.23
2017-03-06T05:29:21.698Z,72.95
2017-03-06T05:30:21.327Z,73.42
2017-03-06T05:31:21.765Z,73.33
2017-03-06T05:32:21.397Z,73.52
2017-03-06T05:33:21.426Z,73.23
2017-03-06T05:34:21.866Z,72.95
2017-03-06T05:35:21.885Z,73.23
2017-03-06T05:36:21.920Z,73.14
2017-03-06T05:37:21.565Z,73.99
2017-03-06T05:38:21.595Z,73.33
2017-03-06T05:39:22.024Z,73.8
2017-03-06T05:40:22.058Z,73.71
2017-03-06T05:41:22.093Z,73.71
2017-03-06T05:42:21.733Z,73.33
2017-03-06T05:43:22.157Z,74.18
2017-03-06T05:44:21.801Z,73.42
2017-03-06T05:45:21.833Z,73.52
2017-03-06T05:46:21.866Z,73.8
2017-03-06T05:47:22.290Z,74.18
2017-03-06T05:48:22.328Z,73.71
2017-03-06T05:49:22.362Z,73.52
2017-03-06T05:50:22.402Z,74.27
2017-03-06T05:51:22.445Z,74.27
2017-03-06T05:52:22.460Z,74.18
2017-03-06T05:53:22.105Z,73.52
2017-03-06T05:54:22.536Z,73.52
2017-03-06T05:55:22.176Z,73.99
2017-03-06T05:56:22.597Z,73.8
2017-03-06T05:57:22.634Z,73.99
2017-03-06T05:58:22.278Z,73.99
2017-03-06T05:59:22.704Z,74.08
2017-03-06T06:00:22.353Z,74.08
2017-03-06T06:01:22.779Z,74.27
2017-03-06T06:02:22.412Z,73.99
2017-03-06T06:03:22.445Z,74.08
2017-03-06T06:04:22.494Z,73.65
2017-03-06T06:05:22.900Z,73.55
2017-03-06T06:06:22.549Z,74.51
2017-03-06T06:07:22.578Z,73.42
2017-03-06T06:08:22.615Z,74.12
2017-03-06T06:09:22.655Z,74.03
2017-03-06T06:10:22.679Z,74.22
2017-03-06T06:11:22.722Z,73.65
2017-03-06T06:12:23.140Z,74.31
2017-03-06T06:13:22.787Z,74.22
2017-03-06T06:14:22.834Z,73.93
2017-03-06T06:15:22.854Z,74.31
2017-03-06T06:16:23.276Z,73.93
2017-03-06T06:17:23.328Z,73.93
2017-03-06T06:18:22.958Z,74.31
2017-03-06T06:19:23.380Z,74.12
2017-03-06T06:20:23.024Z,74.03
2017-03-06T06:21:23.447Z,74.12
2017-03-06T06:22:23.089Z,73.74
2017-03-06T06:23:23.516Z,73.55
2017-03-06T06:24:23.160Z,74.12
2017-03-06T06:25:23.195Z,74.03
2017-03-06T06:26:23.630Z,73.74
2017-03-06T06:27:23.270Z,73.74
2017-03-06T06:28:23.694Z,73.74
2017-03-06T06:29:23.729Z,73.36
2017-03-06T06:30:23.754Z,73.18
2017-03-06T06:31:23.789Z,73.55
2017-03-06T06:32:23.438Z,72.99
2017-03-06T06:33:23.470Z,73.36
2017-03-06T06:34:23.507Z,73.36
2017-03-06T06:35:23.540Z,73.36
2017-03-06T06:36:23.584Z,73.27
2017-03-06T06:37:23.997Z,73.36
2017-03-06T06:38:24.029Z,73.36
2017-03-06T06:39:24.071Z,73.55
2017-03-06T06:40:23.711Z,73.46
2017-03-06T06:41:23.760Z,73.65
2017-03-06T06:42:23.782Z,73.36
2017-03-06T06:43:24.205Z,73.55
2017-03-06T06:44:23.845Z,73.55
2017-03-06T06:45:23.894Z,73.27
2017-03-06T06:46:24.325Z,73.08
2017-03-06T06:47:24.577Z,73.55
2017-03-06T06:48:24.382Z,73.08
2017-03-06T06:49:24.411Z,72.6
2017-03-06T06:50:25.150Z,73.65
2017-03-06T06:51:24.088Z,73.27
2017-03-06T06:52:24.523Z,72.79
2017-03-06T06:53:24.238Z,72.89
2017-03-06T06:54:24.592Z,72.89
2017-03-06T06:55:24.223Z,72.89
2017-03-06T06:56:24.258Z,72.79
2017-03-06T06:57:24.690Z,72.51
2017-03-06T06:58:24.329Z,72.89
2017-03-06T06:59:24.387Z,73.65
2017-03-06T07:00:24.789Z,73.55
2017-03-06T07:01:24.429Z,73.27
2017-03-06T07:02:24.463Z,73.27
2017-03-06T07:03:24.889Z,73.55
2017-03-06T07:04:24.545Z,73.36
2017-03-06T07:05:24.975Z,73.55
2017-03-06T07:06:25.001Z,73.55
2017-03-06T07:07:24.642Z,73.74
2017-03-06T07:08:24.674Z,73.65
2017-03-06T07:09:24.704Z,73.74
2017-03-06T07:10:24.754Z,73.93
2017-03-06T07:11:24.774Z,73.27
2017-03-06T07:12:24.811Z,73.74
2017-03-06T07:13:24.842Z,73.93
2017-03-06T07:14:24.915Z,73.74
2017-03-06T07:15:25.308Z,74.03
2017-03-06T07:16:25.342Z,73.55
2017-03-06T07:17:24.991Z,73.74
2017-03-06T07:18:25.018Z,73.74
2017-03-06T07:19:25.440Z,73.55
2017-03-06T07:20:25.474Z,73.46
2017-03-06T07:21:25.554Z,74.12
2017-03-06T07:22:25.549Z,74.12
2017-03-06T07:23:25.201Z,74.03
2017-03-06T07:24:25.613Z,73.93
2017-03-06T07:25:25.281Z,73.74
2017-03-06T07:26:25.292Z,73.74
2017-03-06T07:27:25.718Z,73.18
2017-03-06T07:28:25.757Z,73.18
2017-03-06T07:29:25.405Z,73.36
2017-03-06T07:30:25.427Z,73.93
2017-03-06T07:31:25.459Z,73.84
2017-03-06T07:32:25.890Z,73.74
2017-03-06T07:33:25.544Z,73.65
2017-03-06T07:34:25.562Z,73.65
2017-03-06T07:35:25.609Z,73.55
2017-03-06T07:36:25.633Z,73.84
2017-03-06T07:37:26.063Z,73.65
2017-03-06T07:38:25.703Z,74.31
2017-03-06T07:39:25.735Z,73.36
2017-03-06T07:40:26.167Z,73.36
2017-03-06T07:41:25.807Z,73.27
2017-03-06T07:42:26.251Z,73.27
2017-03-06T07:43:26.275Z,73.55
2017-03-06T07:44:25.913Z,73.08
2017-03-06T07:45:25.950Z,72.79
2017-03-06T07:46:26.367Z,73.18
2017-03-06T07:47:26.030Z,72.85
2017-03-06T07:48:26.045Z,72.66
2017-03-06T07:49:26.086Z,73.61
2017-03-06T07:50:26.122Z,73.23
2017-03-06T07:51:26.150Z,73.61
2017-03-06T07:52:26.186Z,73.71
2017-03-06T07:53:26.218Z,73.71
2017-03-06T07:54:26.656Z,73.71
2017-03-06T07:55:26.674Z,73.52
2017-03-06T07:56:26.716Z,73.9
2017-03-06T07:57:26.749Z,73.61
2017-03-06T07:58:26.405Z,73.9
2017-03-06T07:59:26.428Z,73.8
2017-03-06T08:00:26.457Z,74.37
2017-03-06T08:01:26.883Z,73.99
2017-03-06T08:02:26.537Z,73.99
2017-03-06T08:03:27.017Z,74.47
2017-03-06T08:04:26.589Z,74.56
2017-03-06T08:05:26.635Z,74.47
2017-03-06T08:06:27.059Z,74.27
2017-03-06T08:07:27.087Z,74.85
2017-03-06T08:08:26.731Z,74.94
2017-03-06T08:09:26.761Z,75.32
2017-03-06T08:10:27.568Z,75.42
2017-03-06T08:11:26.830Z,75.51
2017-03-06T08:12:26.872Z,75.51
2017-03-06T08:13:26.899Z,75.13
2017-03-06T08:14:27.322Z,76.08
2017-03-06T08:15:26.970Z,75.7
2017-03-06T08:16:26.999Z,75.85
2017-03-06T08:17:27.032Z,75.89
2017-03-06T08:18:27.463Z,75.76
2017-03-06T08:19:27.495Z,76.27
2017-03-06T08:20:27.137Z,76.27
2017-03-06T08:21:27.170Z,76.56
2017-03-06T08:22:27.861Z,76.46
2017-03-06T08:23:27.249Z,76.46
2017-03-06T08:24:27.272Z,76.93
2017-03-06T08:25:27.307Z,76.46
2017-03-06T08:26:27.752Z,76.93
2017-03-06T08:27:27.377Z,77.31
2017-03-06T08:28:27.806Z,77.31
2017-03-06T08:29:27.440Z,77.41
2017-03-06T08:30:27.480Z,77.41
2017-03-06T08:31:27.925Z,77.22
2017-03-06T08:32:27.545Z,77.6
2017-03-06T08:33:27.578Z,77.51
2017-03-06T08:34:27.612Z,77.7
2017-03-06T08:35:27.642Z,77.6
2017-03-06T08:36:27.677Z,77.7
2017-03-06T08:37:27.722Z,77.79
2017-03-06T08:38:27.748Z,77.31
2017-03-06T08:39:28.183Z,77.6
2017-03-06T08:40:27.811Z,77.31
2017-03-06T08:41:27.853Z,77.41
2017-03-06T08:42:28.272Z,77.51
2017-03-06T08:43:27.919Z,77.7
2017-03-06T08:44:27.954Z,77.41
2017-03-06T08:45:27.988Z,77.89
2017-03-06T08:46:28.033Z,77.51
2017-03-06T08:47:28.070Z,77.22
2017-03-06T08:48:28.493Z,77.6
2017-03-06T08:49:28.123Z,77.03
2017-03-06T08:50:28.560Z,77.31
2017-03-06T08:51:28.590Z,77.41
2017-03-06T08:52:28.634Z,77.41
2017-03-06T08:53:28.255Z,77.51
2017-03-06T08:54:28.296Z,77.41
2017-03-06T08:55:28.716Z,76.93
2017-03-06T08:56:28.360Z,77.12
2017-03-06T08:57:28.405Z,77.12
2017-03-06T08:58:28.843Z,76.84
2017-03-06T08:59:28.856Z,77.12
2017-03-06T09:00:28.499Z,76.93
2017-03-06T09:01:28.531Z,77.51
2017-03-06T09:02:28.568Z,77.31
2017-03-06T09:03:28.603Z,76.93
2017-03-06T09:04:28.634Z,76.75
2017-03-06T09:05:28.694Z,76.56
2017-03-06T09:06:29.098Z,76.46
2017-03-06T09:07:29.162Z,77.12
2017-03-06T09:08:29.165Z,76.56
2017-03-06T09:09:29.201Z,76.93
2017-03-06T09:10:28.840Z,76.56
2017-03-06T09:11:29.266Z,76.46
2017-03-06T09:12:28.907Z,76.46
2017-03-06T09:13:28.943Z,76.56
2017-03-06T09:14:28.989Z,76.59
2017-03-06T09:15:29.013Z,76.5
2017-03-06T09:16:29.046Z,76.69
2017-03-06T09:17:29.474Z,76.78
2017-03-06T09:18:29.126Z,76.5
2017-03-06T09:19:29.148Z,75.55
2017-03-06T09:20:29.218Z,75.36
2017-03-06T09:21:29.224Z,75.64
2017-03-06T09:22:29.685Z,75.36
2017-03-06T09:23:29.293Z,74.88
2017-03-06T09:24:29.727Z,74.88
2017-03-06T09:25:32.366Z,75.45
2017-03-06T09:26:29.685Z,75.45
2017-03-06T09:27:31.584Z,75.17
2017-03-06T09:28:29.477Z,74.94
2017-03-06T09:29:30.965Z,75.51
2017-03-06T09:30:29.539Z,75.6
2017-03-06T09:31:29.997Z,75.32
2017-03-06T09:32:29.600Z,75.93
2017-03-06T09:33:29.640Z,75.79
2017-03-06T09:34:30.064Z,76.18
2017-03-06T09:35:29.732Z,76.18
2017-03-06T09:36:30.129Z,76.59
2017-03-06T09:37:29.821Z,75.64
2017-03-06T09:38:29.844Z,76.12
2017-03-06T09:39:29.845Z,75.84
2017-03-06T09:40:29.880Z,76.21
2017-03-06T09:41:29.936Z,75.79
2017-03-06T09:42:31.767Z,75.64
2017-03-06T09:43:30.373Z,75.93
2017-03-06T09:44:30.414Z,75.84
2017-03-06T09:45:30.059Z,75.84
2017-03-06T09:46:30.101Z,75.74
2017-03-06T09:47:30.125Z,75.84
2017-03-06T09:48:30.165Z,75.84
2017-03-06T09:49:30.583Z,75.74
2017-03-06T09:50:30.246Z,75.93
2017-03-06T09:51:30.655Z,76.12
2017-03-06T09:52:30.311Z,76.03
2017-03-06T09:53:30.726Z,75.74
2017-03-06T09:54:30.758Z,76.21
2017-03-06T09:55:31.429Z,76.12
2017-03-06T09:56:30.433Z,76.16
2017-03-06T09:57:30.869Z,76.16
2017-03-06T09:58:30.895Z,75.87
2017-03-06T09:59:30.550Z,75.87
2017-03-06T10:00:30.972Z,75.59
2017-03-06T10:01:30.617Z,75.21
2017-03-06T10:02:30.656Z,74.82
2017-03-06T10:03:30.686Z,74.92
2017-03-06T10:04:31.108Z,75.4
2017-03-06T10:05:30.883Z,74.63
2017-03-06T10:06:30.805Z,74.54
2017-03-06T10:07:30.825Z,74.44
2017-03-06T10:08:31.390Z,74.63
2017-03-06T10:09:30.889Z,74.26
2017-03-06T10:10:30.933Z,73.78
2017-03-06T10:11:31.061Z,73.11
2017-03-06T10:12:31.090Z,73.49
2017-03-06T10:13:31.423Z,73.59
2017-03-06T10:14:31.465Z,73.11
2017-03-06T10:15:31.103Z,73.4
2017-03-06T10:16:31.161Z,73.78
2017-03-06T10:17:31.171Z,74.26
2017-03-06T10:18:31.207Z,73.97
2017-03-06T10:19:31.642Z,74.07
2017-03-06T10:20:31.282Z,74.26
2017-03-06T10:21:31.329Z,74.54
2017-03-06T10:22:31.761Z,74.54
2017-03-06T10:23:31.389Z,73.59
2017-03-06T10:24:31.422Z,73.59
2017-03-06T10:25:31.459Z,73.82
2017-03-06T10:26:31.490Z,73.44
2017-03-06T10:27:31.937Z,73.15
2017-03-06T10:28:31.968Z,73.06
2017-03-06T10:29:32.007Z,73.25
2017-03-06T10:30:32.037Z,73.53
2017-03-06T10:31:32.107Z,73.53
2017-03-06T10:32:31.704Z,73.15
2017-03-06T10:33:32.139Z,72.96
2017-03-06T10:34:31.776Z,72.86
2017-03-06T10:35:32.203Z,72.86
2017-03-06T10:36:31.886Z,73.06
2017-03-06T10:37:31.882Z,72.86
2017-03-06T10:38:32.315Z,72.96
2017-03-06T10:39:32.348Z,73.15
2017-03-06T10:40:32.001Z,73.25
2017-03-06T10:41:32.022Z,73.34
2017-03-06T10:42:32.058Z,72.96
2017-03-06T10:43:32.496Z,72.86
2017-03-06T10:44:32.517Z,73.06
2017-03-06T10:45:32.553Z,72.67
2017-03-06T10:46:32.214Z,72.49
2017-03-06T10:47:32.642Z,72.67
2017-03-06T10:48:32.268Z,72.2
2017-03-06T10:49:32.707Z,72.77
2017-03-06T10:50:32.746Z,72.3
2017-03-06T10:51:32.772Z,71.91
2017-03-06T10:52:32.411Z,71.72
2017-03-06T10:53:32.463Z,71.82
2017-03-06T10:54:32.872Z,71.82
2017-03-06T10:55:32.913Z,71.91
2017-03-06T10:56:32.949Z,71.91
2017-03-06T10:57:32.991Z,71.63
2017-03-06T10:58:33.030Z,71.53
2017-03-06T10:59:32.660Z,71.91
2017-03-06T11:00:32.700Z,71.72
2017-03-06T11:01:32.735Z,71.72
2017-03-06T11:02:32.769Z,71.72
2017-03-06T11:03:32.804Z,71.76
2017-03-06T11:04:32.840Z,71.86
2017-03-06T11:05:32.875Z,71.95
2017-03-06T11:06:33.307Z,71.09
2017-03-06T11:07:32.944Z,70.62
2017-03-06T11:08:32.987Z,70.72
2017-03-06T11:09:33.019Z,70.52
2017-03-06T11:10:33.055Z,70.33
2017-03-06T11:11:33.090Z,70.72
2017-03-06T11:12:33.513Z,70.72
2017-03-06T11:13:33.555Z,70.72
2017-03-06T11:14:33.200Z,70.52
2017-03-06T11:15:33.244Z,70.24
2017-03-06T11:16:33.271Z,70.24
2017-03-06T11:17:33.304Z,70.14
2017-03-06T11:18:33.341Z,70.9
2017-03-06T11:19:33.387Z,70.72
2017-03-06T11:20:33.802Z,70.72
2017-03-06T11:21:33.458Z,70.72
2017-03-06T11:22:34.081Z,70.72
2017-03-06T11:23:33.932Z,71.44
2017-03-06T11:24:33.965Z,71.19
2017-03-06T11:25:33.982Z,71.09
2017-03-06T11:26:34.030Z,71.09
2017-03-06T11:27:34.071Z,71.28
2017-03-06T11:28:33.797Z,71.09
2017-03-06T11:29:34.165Z,71.47
2017-03-06T11:30:33.789Z,70.9
2017-03-06T11:31:33.807Z,71
2017-03-06T11:32:33.839Z,71.19
2017-03-06T11:33:33.886Z,70.9
2017-03-06T11:34:33.915Z,70.43
2017-03-06T11:35:34.345Z,70.72
2017-03-06T11:36:33.987Z,70.52
2017-03-06T11:37:34.964Z,71
2017-03-06T11:38:34.068Z,70.9
2017-03-06T11:39:34.095Z,70.62
2017-03-06T11:40:34.125Z,70.81
2017-03-06T11:41:34.172Z,71.28
2017-03-06T11:42:34.217Z,71.09
2017-03-06T11:43:34.241Z,70.72
2017-03-06T11:44:34.669Z,70.43
2017-03-06T11:45:34.714Z,70.81
2017-03-06T11:46:34.346Z,70.62
2017-03-06T11:47:34.388Z,71
2017-03-06T11:48:34.419Z,70.52
2017-03-06T11:49:34.486Z,70.24
2017-03-06T11:50:34.500Z,71.28
2017-03-06T11:51:34.535Z,71.19
2017-03-06T11:52:34.572Z,71.57
2017-03-06T11:53:34.592Z,71.57
2017-03-06T11:54:34.633Z,71.47
2017-03-06T11:55:35.064Z,71.42
2017-03-06T11:56:34.713Z,70.27
2017-03-06T11:57:34.736Z,70.65
2017-03-06T11:58:34.776Z,70.65
2017-03-06T11:59:34.836Z,70.56
2017-03-06T12:00:34.849Z,70.94
2017-03-06T12:01:34.898Z,70.84
2017-03-06T12:02:35.321Z,71.07
2017-03-06T12:03:34.957Z,70.59
2017-03-06T12:04:35.390Z,70.5
2017-03-06T12:05:35.429Z,70.21
2017-03-06T12:06:35.075Z,70.31
2017-03-06T12:07:35.496Z,70.12
2017-03-06T12:08:35.540Z,69.93
2017-03-06T12:09:35.179Z,69.45
2017-03-06T12:10:35.615Z,69.83
2017-03-06T12:11:35.642Z,69.26
2017-03-06T12:12:35.683Z,68.59
2017-03-06T12:13:35.330Z,68.69
2017-03-06T12:14:35.762Z,68.4
2017-03-06T12:15:35.407Z,68.78
2017-03-06T12:16:35.843Z,67.83
2017-03-06T12:17:35.592Z,68.5
2017-03-06T12:18:35.907Z,68.5
2017-03-06T12:19:35.583Z,67.83
2017-03-06T12:20:35.587Z,68.12
2017-03-06T12:21:36.175Z,67.64
2017-03-06T12:22:36.058Z,68.02
2017-03-06T12:23:36.182Z,67.83
2017-03-06T12:24:36.143Z,67.64
2017-03-06T12:25:36.209Z,68.59
2017-03-06T12:26:35.815Z,67.93
2017-03-06T12:27:36.249Z,68.21
2017-03-06T12:28:35.880Z,68.69
2017-03-06T12:29:36.441Z,67.83
2017-03-06T12:30:35.955Z,67.35
2017-03-06T12:31:36.032Z,67.45
2017-03-06T12:32:36.031Z,67.35
2017-03-06T12:33:36.464Z,67.55
2017-03-06T12:34:36.106Z,67.16
2017-03-06T12:35:36.265Z,67.35
2017-03-06T12:36:36.177Z,66.59
2017-03-06T12:37:36.614Z,66.69
2017-03-06T12:38:36.649Z,66.5
2017-03-06T12:39:36.295Z,66.5
2017-03-06T12:40:36.770Z,67.16
2017-03-06T12:41:36.755Z,67.07
2017-03-06T12:42:36.397Z,67.26
2017-03-06T12:43:36.436Z,66.88
2017-03-06T12:44:36.471Z,66.78
2017-03-06T12:45:37.000Z,66.69
2017-03-06T12:46:36.545Z,66.5
2017-03-06T12:47:36.586Z,66.69
2017-03-06T12:48:37.030Z,66.31
2017-03-06T12:49:37.123Z,66.59
2017-03-06T12:50:36.697Z,66.44
2017-03-06T12:51:36.762Z,66.21
2017-03-06T12:52:36.769Z,66.97
2017-03-06T12:53:36.819Z,66.21
2017-03-06T12:54:37.325Z,66.15
2017-03-06T12:55:36.877Z,65.77